aviador You're here:

GCXO Decoded Metar

TENERIFE in SPAIN
Report Time2017-11-20 23:00:00
UTC Time2017-11-20 23:07:22
Flight Rules vfr VFR
Wind140° at 06 kt
W.Decomp.*RWY 12: 5.4 kt HW 2.5 kt RCW
W.Rank140° ranks 13
Current wind is above 140° avg. (5.9)
Visibility9999 m
Phenomena:N/A
Clouds:N/A
Expected CloudBase > 8,400 ft AGL from Temp-Dew spread
CeilingNone
Temp18°C (ISA +7)
Dew Point-3°C (24% RH)
AAT13.5°C
QNH1019 hPa
Density Alt2,776 ft
Elevation2,073 ft
Report Wrong Elevation
Raw Report
METAR GCXO 202300Z 14006KT 100V170 CAVOK 18/M03 Q1019 NOSIG=

Extra information for GCXO:More info

Metar Taf Metar & Taf Last 4 Metars F.Rules Stats Wind Profile Meteogram Temp Stats Airport Information Weather charts Add Link Nearby VenuesMetar ALERT Operation Metar Decoded Social comments